Time;durP1;ratioP1;P1;durP2;ratioP2;P2;SDS_P1;SDS_P2;PMS_P1;PMS_P2;Temp;Humidity;BMP_temperature;BMP_pressure;BME280_temperature;BME280_humidity;BME280_pressure;Samples;Min_cycle;Max_cycle;Signal;HPM_P1;HPM_P2
2023/08/19 05:04:42;;;;;;;3.22;2.92;;;;;;;21.35;62.28;96684.19;4939036;29;20068;-80
2023/08/19 05:12:58;;;;;;;3.83;2.78;;;;;;;21.34;62.24;96689.75;5219626;23;20083;-79
2023/08/19 08:54:34;;;;;;;5.97;2.45;;;;;;;30.48;40.23;96810.09;5131271;23;20447;-83
2023/08/19 08:57:02;;;;;;;4.88;2.50;;;;;;;30.61;40.31;96811.91;4935793;29;20429;-83
2023/08/19 08:59:30;;;;;;;4.50;2.70;;;;;;;30.74;39.94;96805.69;4935867;29;20055;-84
2023/08/19 09:01:59;;;;;;;7.72;3.05;;;;;;;30.89;39.30;96812.59;4936037;29;20098;-83
2023/08/19 09:04:29;;;;;;;7.45;3.00;;;;;;;31.04;38.93;96816.81;4936272;29;20059;-83
2023/08/19 09:07:01;;;;;;;4.40;2.50;;;;;;;31.19;38.49;96816.41;4936214;29;20051;-83
2023/08/19 10:09:02;;;;;;;4.90;2.53;;;;;;;33.64;31.61;96825.41;5424772;23;20522;-83
2023/08/19 10:11:31;;;;;;;2.50;1.92;;;;;;;33.74;31.82;96824.25;4949965;29;20498;-82
2023/08/19 10:14:01;;;;;;;4.90;2.28;;;;;;;33.83;30.88;96819.59;4949312;29;20059;-83
2023/08/19 10:16:30;;;;;;;6.85;2.28;;;;;;;33.92;31.45;96823.03;4948214;29;20134;-84
2023/08/19 10:19:00;;;;;;;6.57;2.85;;;;;;;34.02;31.27;96827.25;4948967;29;20052;-84
2023/08/19 10:21:30;;;;;;;7.82;2.15;;;;;;;34.09;30.85;96818.63;4947161;29;20115;-84
2023/08/19 10:23:59;;;;;;;7.43;2.97;;;;;;;34.16;30.47;96825.13;4942141;29;20548;-83
2023/08/19 10:26:27;;;;;;;3.20;2.28;;;;;;;34.25;30.62;96825.06;4943402;29;20051;-85
2023/08/19 10:29:05;;;;;;;3.17;1.85;;;;;;;34.33;31.28;96832.34;4943008;29;20052;-85
2023/08/19 10:31:34;;;;;;;6.03;2.60;;;;;;;34.37;30.65;96816.19;4942858;29;20553;-85
2023/08/19 10:34:11;;;;;;;4.82;2.85;;;;;;;34.45;29.97;96818.84;4943033;29;20064;-84
2023/08/19 10:36:39;;;;;;;3.08;1.98;;;;;;;34.56;29.74;96816.50;4942957;29;20115;-85
2023/08/19 10:39:17;;;;;;;6.88;2.50;;;;;;;34.65;30.33;96805.63;4943906;29;20083;-86
2023/08/19 10:41:44;;;;;;;4.53;2.55;;;;;;;34.74;29.38;96819.09;4943646;29;20083;-86
2023/08/19 10:44:13;;;;;;;5.68;2.38;;;;;;;34.76;29.07;96811.44;4943778;29;20058;-85
2023/08/19 10:46:43;;;;;;;4.13;2.22;;;;;;;34.73;28.81;96812.09;4948658;28;20035;-86
2023/08/19 10:49:14;;;;;;;5.57;2.28;;;;;;;34.75;28.72;96810.63;4942837;29;20077;-86
2023/08/19 10:51:47;;;;;;;3.15;1.13;;;;;;;34.70;32.17;96802.69;4927850;29;20056;-79
2023/08/19 10:54:26;;;;;;;6.00;2.53;;;;;;;34.73;29.58;96801.25;4927823;29;20051;-89
2023/08/19 10:57:06;;;;;;;3.47;2.53;;;;;;;34.76;29.82;96795.94;4941812;29;20083;-87
2023/08/19 10:59:35;;;;;;;6.32;2.20;;;;;;;34.78;28.85;96798.34;4956375;28;20062;-85
2023/08/19 11:02:04;;;;;;;6.15;2.70;;;;;;;34.77;29.56;96797.56;4944193;29;20055;-87
2023/08/19 11:04:32;;;;;;;5.95;2.47;;;;;;;34.86;29.44;96797.47;4941352;29;20048;-88
2023/08/19 11:07:00;;;;;;;7.65;2.38;;;;;;;34.95;29.91;96798.16;4949193;29;20051;-88
2023/08/19 11:09:29;;;;;;;5.95;2.42;;;;;;;34.98;29.43;96804.81;4951355;29;20055;-87
2023/08/19 11:11:58;;;;;;;12.40;2.97;;;;;;;34.86;28.67;96792.03;4961422;29;20050;-87
2023/08/19 11:14:26;;;;;;;4.28;2.47;;;;;;;34.76;28.67;96806.78;4951625;29;20051;-90
2023/08/19 11:16:57;;;;;;;4.85;2.50;;;;;;;34.76;28.25;96801.38;4970710;29;20051;-84
2023/08/19 11:19:26;;;;;;;4.78;2.10;;;;;;;34.81;28.48;96801.19;4973212;28;20048;-85
2023/08/19 11:21:53;;;;;;;6.25;2.58;;;;;;;34.82;29.23;96800.03;4957144;29;20058;-85
2023/08/19 11:24:31;;;;;;;6.47;2.20;;;;;;;34.75;28.44;96804.44;4958770;29;20145;-85
2023/08/19 11:27:00;;;;;;;6.30;3.30;;;;;;;34.73;29.54;96801.25;4973988;29;20047;-85
2023/08/19 11:29:28;;;;;;;5.28;2.40;;;;;;;34.78;28.89;96804.53;4974711;28;20625;-84
2023/08/19 11:31:57;;;;;;;11.95;3.35;;;;;;;34.87;28.95;96807.16;4967732;29;20047;-85
2023/08/19 11:34:28;;;;;;;5.57;2.78;;;;;;;34.94;28.58;96812.81;4971958;29;20051;-85
2023/08/19 11:36:57;;;;;;;4.85;2.20;;;;;;;35.00;28.66;96802.56;4972895;29;20052;-84
2023/08/19 11:39:32;;;;;;;5.80;2.63;;;;;;;35.03;27.72;96810.00;4958084;28;20485;-86
2023/08/19 11:42:01;;;;;;;7.28;2.58;;;;;;;34.99;28.12;96804.50;4947206;29;20047;-84
2023/08/19 11:44:29;;;;;;;6.63;2.67;;;;;;;34.90;29.53;96809.22;4953405;29;20052;-84
2023/08/19 11:46:57;;;;;;;7.70;2.30;;;;;;;34.87;28.64;96801.75;4949187;29;20051;-85
2023/08/19 11:49:29;;;;;;;5.65;2.50;;;;;;;34.85;28.71;96807.47;4948657;29;20086;-86
2023/08/19 11:51:58;;;;;;;6.45;2.47;;;;;;;34.84;28.41;96805.91;4957730;29;20059;-84
2023/08/19 11:54:26;;;;;;;5.05;2.50;;;;;;;34.85;27.76;96806.69;4958840;29;20047;-86
2023/08/19 11:57:01;;;;;;;8.23;2.75;;;;;;;34.86;28.10;96803.66;4954143;29;20063;-84
2023/08/19 11:59:32;;;;;;;4.32;2.40;;;;;;;34.88;28.51;96804.13;4937164;29;20578;-84
2023/08/19 12:02:05;;;;;;;9.07;3.30;;;;;;;34.92;28.71;96809.69;4938480;29;20107;-84
2023/08/19 12:04:38;;;;;;;5.38;2.15;;;;;;;34.95;27.67;96803.56;4938789;29;20082;-86
2023/08/19 12:07:13;;;;;;;4.75;2.30;;;;;;;34.96;27.60;96812.50;4939609;29;20051;-86
2023/08/19 12:09:42;;;;;;;4.35;2.40;;;;;;;34.97;27.35;96809.44;4952301;28;20063;-85
2023/08/19 12:12:17;;;;;;;8.05;2.30;;;;;;;34.90;26.75;96809.22;4937339;29;20059;-87
2023/08/19 12:14:54;;;;;;;3.83;2.33;;;;;;;34.86;27.05;96811.78;4938769;29;20083;-87
2023/08/19 12:17:33;;;;;;;10.00;3.15;;;;;;;34.86;28.12;96806.38;4950897;28;20068;-86
2023/08/19 12:20:12;;;;;;;8.48;2.35;;;;;;;34.87;27.04;96805.22;4941802;29;20103;-88
2023/08/19 12:22:45;;;;;;;7.40;3.47;;;;;;;34.93;27.85;96805.81;4929909;29;20058;-87
2023/08/19 12:25:15;;;;;;;9.65;2.90;;;;;;;34.92;26.98;96808.88;4939796;29;20058;-83
2023/08/19 12:27:51;;;;;;;5.53;2.40;;;;;;;34.88;27.68;96809.53;4957627;28;20055;-86
2023/08/19 12:30:19;;;;;;;7.53;2.95;;;;;;;34.90;27.71;96798.38;4964379;29;20071;-84
2023/08/19 12:32:47;;;;;;;9.00;3.28;;;;;;;34.93;27.63;96800.41;4959862;28;20046;-85
2023/08/19 12:35:17;;;;;;;9.03;2.60;;;;;;;34.93;28.16;96797.69;4960184;28;20042;-83
2023/08/19 12:37:45;;;;;;;5.57;2.55;;;;;;;34.91;28.10;96791.03;4965379;28;20043;-83
2023/08/19 12:40:13;;;;;;;10.40;3.28;;;;;;;34.94;27.74;96801.19;4969832;28;20234;-84
2023/08/19 12:42:41;;;;;;;5.13;2.75;;;;;;;34.97;28.09;96798.63;4959863;28;20127;-84
2023/08/19 12:45:17;;;;;;;4.40;2.35;;;;;;;35.01;27.16;96801.44;4949594;29;20048;-84
2023/08/19 12:47:46;;;;;;;7.22;2.60;;;;;;;34.97;26.43;96790.47;4946837;29;20141;-84
2023/08/19 12:50:15;;;;;;;8.40;2.85;;;;;;;34.91;27.66;96793.75;4952376;29;20054;-81
2023/08/19 12:52:43;;;;;;;5.43;2.00;;;;;;;34.85;27.25;96799.34;4960282;29;20394;-81
2023/08/19 12:55:12;;;;;;;7.63;2.42;;;;;;;34.84;27.29;96800.50;4950586;29;20043;-83
2023/08/19 12:57:42;;;;;;;8.27;2.50;;;;;;;34.83;26.54;96806.25;4961962;28;20047;-84
2023/08/19 13:00:12;;;;;;;8.25;2.35;;;;;;;34.82;26.19;96815.50;4962477;29;20106;-83
2023/08/19 13:02:41;;;;;;;7.47;2.72;;;;;;;34.75;26.65;96807.94;4952970;29;20043;-83
2023/08/19 13:05:10;;;;;;;6.60;2.55;;;;;;;34.70;27.33;96808.13;4944181;29;20052;-83
2023/08/19 13:07:37;;;;;;;8.85;2.50;;;;;;;34.65;26.77;96800.22;4943593;29;20080;-83
2023/08/19 13:10:06;;;;;;;4.13;2.25;;;;;;;34.60;26.69;96803.09;4958049;28;20031;-84
2023/08/19 13:12:34;;;;;;;6.65;2.40;;;;;;;34.58;27.36;96799.94;4972333;29;20051;-83
2023/08/19 13:15:03;;;;;;;7.13;2.95;;;;;;;34.54;27.53;96799.00;4954269;29;20147;-84
2023/08/19 13:17:31;;;;;;;4.95;2.30;;;;;;;34.51;27.21;96802.41;4949699;29;20099;-84
2023/08/19 13:20:00;;;;;;;4.53;2.00;;;;;;;34.50;27.45;96808.94;4945586;29;20115;-81
2023/08/19 13:22:28;;;;;;;5.50;3.00;;;;;;;34.54;27.66;96809.84;4950991;29;20047;-84
2023/08/19 13:24:55;;;;;;;6.68;2.75;;;;;;;34.57;27.30;96803.75;4961324;29;20071;-84
2023/08/19 13:27:23;;;;;;;3.72;2.00;;;;;;;34.58;27.14;96800.72;4944224;29;20099;-83
2023/08/19 13:29:51;;;;;;;6.35;2.42;;;;;;;34.57;27.02;96809.19;4945424;29;20063;-84
2023/08/19 13:32:18;;;;;;;4.97;2.10;;;;;;;34.55;27.43;96800.59;4944990;29;20074;-84
2023/08/19 13:34:46;;;;;;;6.63;1.67;;;;;;;34.54;28.15;96802.50;4962315;29;20047;-84
2023/08/19 13:37:15;;;;;;;6.10;2.55;;;;;;;34.52;27.56;96801.25;4966463;28;20079;-84
2023/08/19 13:39:43;;;;;;;8.95;2.63;;;;;;;34.50;28.03;96804.28;4959028;28;20498;-84
2023/08/19 13:42:11;;;;;;;8.02;3.72;;;;;;;34.40;32.80;96804.72;4943317;29;20110;-82
2023/08/19 13:44:38;;;;;;;11.73;4.00;;;;;;;34.21;30.90;96814.09;4948469;29;20592;-85
2023/08/19 13:47:06;;;;;;;7.75;2.47;;;;;;;34.12;29.19;96820.72;4947762;29;20059;-83
2023/08/19 13:49:34;;;;;;;7.78;2.75;;;;;;;34.12;29.32;96818.00;4946080;29;20111;-83
2023/08/19 13:52:02;;;;;;;6.63;2.53;;;;;;;34.13;28.20;96816.88;4946036;29;20048;-82
2023/08/19 13:54:31;;;;;;;11.48;2.45;;;;;;;34.12;27.96;96820.72;4952549;29;20048;-83
2023/08/19 13:56:59;;;;;;;6.30;2.40;;;;;;;34.05;28.65;96816.56;4945614;29;20060;-83
2023/08/19 13:59:27;;;;;;;6.03;2.60;;;;;;;33.99;29.60;96809.75;4960612;29;20103;-83
2023/08/19 14:01:54;;;;;;;6.85;2.55;;;;;;;33.97;29.88;96820.13;4966734;29;20047;-83
2023/08/19 14:04:22;;;;;;;5.68;2.75;;;;;;;33.94;29.47;96820.00;4955768;29;20043;-83
2023/08/19 14:06:50;;;;;;;6.25;2.78;;;;;;;33.90;30.16;96822.56;4947569;29;20048;-83
2023/08/19 14:09:17;;;;;;;7.15;2.80;;;;;;;33.87;29.94;96823.19;4954093;29;20047;-85
2023/08/19 14:11:46;;;;;;;6.45;2.58;;;;;;;33.83;29.04;96820.38;4966140;29;20047;-84
2023/08/19 14:14:14;;;;;;;7.85;3.08;;;;;;;33.84;30.42;96824.66;4955451;29;20103;-84
2023/08/19 14:16:52;;;;;;;8.07;2.60;;;;;;;33.89;30.10;96823.66;4959460;29;20079;-85
2023/08/19 14:19:20;;;;;;;5.00;2.55;;;;;;;33.90;29.98;96825.28;4968094;28;20047;-83
2023/08/19 14:21:48;;;;;;;7.75;2.67;;;;;;;33.88;30.47;96816.69;4964682;29;20410;-83
2023/08/19 14:24:15;;;;;;;5.03;2.30;;;;;;;33.89;29.96;96820.97;4964047;29;20106;-83
2023/08/19 14:26:43;;;;;;;6.25;2.72;;;;;;;33.90;29.50;96827.19;4954348;29;20052;-83
2023/08/19 14:29:12;;;;;;;4.63;2.35;;;;;;;33.89;29.62;96829.09;4947161;29;20502;-80
2023/08/19 14:31:40;;;;;;;4.93;2.70;;;;;;;33.83;29.09;96825.00;4950147;29;20043;-83
2023/08/19 14:34:07;;;;;;;6.10;2.67;;;;;;;33.78;29.46;96822.47;4956545;29;20058;-80
2023/08/19 14:36:35;;;;;;;8.30;3.20;;;;;;;33.70;30.14;96828.75;4969289;29;20124;-80
2023/08/19 14:39:04;;;;;;;4.47;2.63;;;;;;;33.64;30.16;96828.13;4952291;29;20568;-82
2023/08/19 14:41:32;;;;;;;5.15;2.22;;;;;;;33.58;29.53;96832.88;4948133;29;20047;-82
2023/08/19 14:44:00;;;;;;;4.78;2.58;;;;;;;33.54;29.96;96833.84;4955442;29;20054;-82
2023/08/19 14:46:29;;;;;;;4.95;2.33;;;;;;;33.51;31.36;96824.50;4950159;29;20057;-83
2023/08/19 14:48:56;;;;;;;4.80;2.92;;;;;;;33.48;30.84;96830.56;4944459;29;20126;-83
2023/08/19 14:51:24;;;;;;;4.60;2.75;;;;;;;33.44;30.97;96838.53;4962086;29;20131;-83
2023/08/19 14:53:52;;;;;;;7.13;2.85;;;;;;;33.42;30.56;96831.84;4962463;29;20075;-83
2023/08/19 14:56:19;;;;;;;6.07;2.85;;;;;;;33.41;30.33;96835.66;4968650;29;20055;-83
2023/08/19 14:58:48;;;;;;;7.07;3.28;;;;;;;33.38;30.81;96828.22;4968769;29;20428;-82
2023/08/19 15:01:17;;;;;;;7.57;2.90;;;;;;;33.33;30.66;96831.88;4955518;29;20494;-83
2023/08/19 15:03:46;;;;;;;5.25;2.47;;;;;;;33.29;30.74;96827.47;4952663;29;20052;-82
2023/08/19 15:06:15;;;;;;;8.98;2.80;;;;;;;33.19;30.65;96821.28;4946715;29;20063;-82
2023/08/19 15:08:42;;;;;;;10.93;2.88;;;;;;;33.12;30.77;96818.28;4948094;29;20168;-81
2023/08/19 15:11:10;;;;;;;3.45;2.42;;;;;;;33.04;30.41;96821.78;4947207;29;20055;-82
2023/08/19 15:13:38;;;;;;;6.25;2.70;;;;;;;32.98;30.66;96823.06;4950664;29;20051;-82
2023/08/19 15:16:06;;;;;;;7.38;3.08;;;;;;;32.94;30.72;96819.41;4948015;29;20088;-84
2023/08/19 15:18:33;;;;;;;7.97;2.63;;;;;;;32.88;31.38;96820.69;4959932;28;20124;-84
2023/08/19 15:21:03;;;;;;;8.00;2.88;;;;;;;32.84;31.49;96823.25;4948393;29;20107;-82
2023/08/19 15:23:30;;;;;;;5.97;2.72;;;;;;;32.78;32.10;96817.22;4957226;29;20051;-84
2023/08/19 15:25:58;;;;;;;7.15;3.17;;;;;;;32.74;31.28;96812.78;4953928;29;20056;-83
2023/08/19 15:28:26;;;;;;;11.35;4.85;;;;;;;32.70;32.44;96819.94;4950160;29;20088;-84
2023/08/19 15:30:53;;;;;;;6.50;3.50;;;;;;;32.66;32.09;96819.00;4959269;29;20035;-84
2023/08/19 15:33:21;;;;;;;7.68;3.42;;;;;;;32.61;31.91;96814.56;4956164;29;20079;-85
2023/08/19 15:35:49;;;;;;;7.15;3.20;;;;;;;32.56;32.46;96823.63;4948226;29;20075;-84
2023/08/19 15:38:18;;;;;;;6.00;2.90;;;;;;;32.53;33.17;96818.84;4954027;28;20051;-83
2023/08/19 15:40:45;;;;;;;5.10;2.67;;;;;;;32.50;32.72;96818.66;4968211;29;20095;-82
2023/08/19 15:43:13;;;;;;;5.78;3.05;;;;;;;32.46;33.88;96812.31;4945632;29;20055;-84
2023/08/19 15:45:41;;;;;;;5.30;3.53;;;;;;;32.40;33.33;96820.56;4949098;29;20090;-84
2023/08/19 15:48:08;;;;;;;5.22;3.22;;;;;;;32.35;34.38;96818.03;4956547;28;20083;-84
2023/08/19 15:50:36;;;;;;;4.25;2.72;;;;;;;32.30;33.37;96815.50;4936041;29;20052;-84
2023/08/19 15:53:04;;;;;;;4.00;2.65;;;;;;;32.28;33.87;96828.50;4949229;29;20094;-82
2023/08/19 15:55:33;;;;;;;5.88;3.33;;;;;;;32.23;33.78;96820.53;4956911;29;20043;-85
2023/08/19 15:58:01;;;;;;;5.65;2.85;;;;;;;32.19;34.46;96823.09;4960218;28;20452;-84
2023/08/19 16:00:29;;;;;;;9.20;3.25;;;;;;;32.14;34.45;96823.28;4959286;28;20047;-83
2023/08/19 16:02:57;;;;;;;5.35;3.03;;;;;;;32.11;34.96;96823.09;4965057;29;20124;-85
2023/08/19 16:05:27;;;;;;;4.15;3.30;;;;;;;32.08;35.83;96829.09;4960941;29;20051;-83
2023/08/19 16:07:55;;;;;;;4.75;3.10;;;;;;;32.05;36.89;96830.53;4959288;28;20051;-83
2023/08/19 16:10:23;;;;;;;6.32;3.78;;;;;;;32.00;38.32;96826.09;4960736;29;20057;-82
2023/08/19 16:12:52;;;;;;;4.57;3.15;;;;;;;31.96;37.76;96833.19;4955873;29;20043;-83
2023/08/19 16:15:20;;;;;;;4.13;3.15;;;;;;;31.91;38.64;96824.47;4943539;29;20078;-83
2023/08/19 16:17:47;;;;;;;5.88;3.45;;;;;;;31.88;39.69;96846.66;4942737;29;20107;-83
2023/08/19 16:20:15;;;;;;;8.18;3.70;;;;;;;31.83;39.14;96851.09;4941100;29;20058;-83
2023/08/19 16:22:43;;;;;;;7.65;3.35;;;;;;;31.76;39.58;96852.66;4937991;29;20059;-82
2023/08/19 16:25:11;;;;;;;6.22;3.10;;;;;;;31.67;40.49;96846.47;4936502;29;20110;-82
2023/08/19 16:27:38;;;;;;;8.73;3.38;;;;;;;31.57;41.37;96851.00;4940578;28;20055;-82
2023/08/19 16:30:09;;;;;;;7.43;4.28;;;;;;;31.49;41.94;96856.41;4956248;29;20051;-81
2023/08/19 16:32:36;;;;;;;4.68;2.92;;;;;;;31.40;42.36;96859.03;4945878;29;20266;-81
2023/08/19 16:35:05;;;;;;;9.45;3.35;;;;;;;31.33;42.80;96864.03;4955008;29;20572;-81
2023/08/19 16:37:32;;;;;;;5.45;3.20;;;;;;;31.26;43.09;96869.09;4954106;28;20074;-82
2023/08/19 16:40:00;;;;;;;5.45;3.38;;;;;;;31.18;43.71;96871.44;4955805;29;20058;-82
2023/08/19 16:42:28;;;;;;;6.53;3.25;;;;;;;31.10;43.92;96872.16;4954498;29;20061;-82
2023/08/19 16:44:56;;;;;;;4.85;2.97;;;;;;;31.03;44.50;96877.19;4936734;29;20055;-83
2023/08/19 16:47:25;;;;;;;4.88;3.30;;;;;;;30.96;44.78;96887.59;4955263;29;20425;-84
2023/08/19 16:49:53;;;;;;;6.75;2.97;;;;;;;30.89;44.81;96881.84;4940164;28;20107;-82
2023/08/19 16:52:20;;;;;;;6.30;3.70;;;;;;;30.85;45.19;96886.22;4940722;29;20445;-82
2023/08/19 16:54:51;;;;;;;5.30;3.63;;;;;;;30.82;45.09;96886.84;4945772;29;20055;-81
2023/08/19 16:57:19;;;;;;;5.90;3.83;;;;;;;30.76;45.03;96891.53;4936993;29;20051;-83
2023/08/19 16:59:47;;;;;;;5.45;3.78;;;;;;;30.75;45.00;96898.84;4937530;29;20485;-82
2023/08/19 17:02:14;;;;;;;5.90;3.53;;;;;;;30.75;45.18;96915.00;4940939;29;20052;-82
2023/08/19 17:04:45;;;;;;;5.18;3.50;;;;;;;30.74;45.34;96918.81;4940506;29;20551;-82
2023/08/19 17:07:13;;;;;;;6.50;3.87;;;;;;;30.73;45.32;96919.09;4954746;29;20468;-83
2023/08/19 17:09:42;;;;;;;3.88;3.50;;;;;;;30.70;45.23;96919.69;4943248;28;20058;-82
2023/08/19 17:12:10;;;;;;;8.85;3.85;;;;;;;30.68;45.37;96920.00;4954979;28;20062;-82
2023/08/19 17:14:38;;;;;;;4.70;3.50;;;;;;;30.67;45.49;96915.72;4943357;29;20053;-83
2023/08/19 17:17:06;;;;;;;5.78;3.25;;;;;;;30.66;45.43;96924.13;4944166;29;20122;-82
2023/08/19 17:19:34;;;;;;;6.82;3.67;;;;;;;30.62;45.65;96926.59;4943058;29;20118;-83
2023/08/19 17:22:03;;;;;;;5.30;4.00;;;;;;;30.57;45.46;96929.41;4958074;29;20114;-82
2023/08/19 17:24:31;;;;;;;5.78;4.25;;;;;;;30.52;45.42;96921.44;4962201;29;20110;-81
2023/08/19 17:26:58;;;;;;;4.45;3.33;;;;;;;30.47;45.30;96929.63;4961379;29;20074;-82
2023/08/19 17:29:26;;;;;;;9.15;4.03;;;;;;;30.41;45.37;96925.47;4961082;28;20577;-82
2023/08/19 17:31:54;;;;;;;5.68;3.90;;;;;;;30.31;45.27;96927.28;4951884;28;20043;-82
2023/08/19 17:34:21;;;;;;;5.75;3.75;;;;;;;30.23;45.10;96930.63;4941947;29;20111;-81
2023/08/19 17:36:49;;;;;;;6.93;3.72;;;;;;;30.15;45.47;96931.31;4954051;28;20114;-82
2023/08/19 17:39:18;;;;;;;6.68;3.80;;;;;;;30.08;44.85;96942.50;4945894;28;20074;-81
2023/08/19 17:41:45;;;;;;;6.07;4.03;;;;;;;30.01;45.18;96935.94;4941156;29;20083;-81
2023/08/19 17:44:13;;;;;;;7.53;3.90;;;;;;;29.95;45.02;96946.78;4951302;29;20074;-82
2023/08/19 17:46:43;;;;;;;6.32;3.83;;;;;;;29.88;45.24;96946.38;4961171;28;20675;-81
2023/08/19 17:49:10;;;;;;;4.55;3.60;;;;;;;29.86;45.38;96953.16;4967739;28;20046;-81
2023/08/19 17:51:38;;;;;;;11.23;4.10;;;;;;;29.81;45.35;96951.38;4968040;29;20058;-82
2023/08/19 17:54:08;;;;;;;4.55;4.15;;;;;;;29.76;46.08;96954.94;4963820;29;20095;-82
2023/08/19 17:56:37;;;;;;;5.72;3.70;;;;;;;29.72;45.83;96961.22;4953873;29;20051;-81
2023/08/19 17:59:07;;;;;;;6.45;4.25;;;;;;;29.67;46.24;96958.56;4958937;28;20139;-82
2023/08/19 18:01:35;;;;;;;4.50;4.05;;;;;;;29.60;46.40;96958.16;4964848;29;20481;-81
2023/08/19 18:04:03;;;;;;;6.13;3.90;;;;;;;29.54;46.23;96957.44;4963701;28;20059;-82
2023/08/19 18:06:31;;;;;;;7.68;5.35;;;;;;;29.47;46.29;96952.47;4959577;28;20087;-81
2023/08/19 18:08:58;;;;;;;6.60;4.53;;;;;;;29.43;46.84;96956.03;4955409;28;20055;-81
2023/08/19 18:11:26;;;;;;;4.53;4.00;;;;;;;29.38;46.57;96955.03;4944619;29;20107;-82
2023/08/19 18:13:55;;;;;;;7.53;4.55;;;;;;;29.36;47.09;96951.03;4944214;29;20502;-82
2023/08/19 18:16:23;;;;;;;6.10;3.90;;;;;;;29.32;47.44;96950.84;4953782;29;20497;-82
2023/08/19 18:18:50;;;;;;;6.60;4.28;;;;;;;29.29;47.62;96953.31;4951619;29;20054;-82
2023/08/19 18:21:18;;;;;;;7.88;4.28;;;;;;;29.24;48.04;96954.19;4944715;29;20120;-81
2023/08/19 18:23:46;;;;;;;7.05;4.68;;;;;;;29.16;48.47;96954.88;4959017;28;20125;-81
2023/08/19 18:26:17;;;;;;;9.80;4.20;;;;;;;29.10;48.56;96962.22;4954964;29;20095;-81
2023/08/19 18:28:44;;;;;;;7.72;4.75;;;;;;;29.01;48.73;96960.44;4946804;29;20183;-82
2023/08/19 18:31:13;;;;;;;5.07;4.38;;;;;;;28.95;49.43;96957.84;4942972;29;20075;-81
2023/08/19 18:33:41;;;;;;;5.57;4.28;;;;;;;28.88;50.98;96957.41;4944813;29;20047;-81
2023/08/19 18:36:09;;;;;;;7.18;4.13;;;;;;;28.75;51.34;96955.44;4958933;29;20059;-81
2023/08/19 18:38:36;;;;;;;6.57;4.75;;;;;;;28.59;52.11;96957.56;4959235;29;20055;-84
2023/08/19 18:41:04;;;;;;;11.02;4.90;;;;;;;28.44;52.10;96969.25;4959389;29;20051;-82
2023/08/19 18:43:32;;;;;;;7.88;5.35;;;;;;;28.32;52.53;96967.00;4959143;29;20066;-83
2023/08/19 18:45:59;;;;;;;13.13;4.95;;;;;;;28.24;52.83;96972.19;4939987;29;20055;-81
2023/08/19 18:48:28;;;;;;;6.65;4.82;;;;;;;28.15;53.08;96969.34;4938807;29;20051;-84
2023/08/19 18:50:56;;;;;;;7.78;4.88;;;;;;;28.06;53.54;96965.69;4938358;29;20088;-83
2023/08/19 18:53:25;;;;;;;9.38;4.82;;;;;;;27.93;53.67;96959.94;4943856;29;20080;-80
2023/08/19 18:55:53;;;;;;;7.30;4.82;;;;;;;27.83;53.64;96965.34;4938047;29;20051;-81
2023/08/19 18:58:21;;;;;;;7.60;4.93;;;;;;;27.71;54.07;96962.28;4940083;29;20063;-80
2023/08/19 19:00:49;;;;;;;6.90;4.72;;;;;;;27.58;54.16;96969.09;4943712;29;20059;-80
2023/08/19 19:03:16;;;;;;;6.63;4.68;;;;;;;27.46;54.67;96972.16;4959399;29;20180;-80
2023/08/19 19:05:46;;;;;;;9.07;5.00;;;;;;;27.38;54.96;96980.78;4962511;29;20126;-80
2023/08/19 19:08:14;;;;;;;5.93;4.28;;;;;;;27.30;54.86;96974.16;4954444;29;20080;-78
2023/08/19 19:10:42;;;;;;;8.50;4.60;;;;;;;27.26;54.36;96975.00;4970854;29;20258;-79
2023/08/19 19:13:10;;;;;;;7.60;4.78;;;;;;;27.23;54.88;96978.25;4965419;29;20059;-79
2023/08/19 19:15:37;;;;;;;12.27;5.68;;;;;;;27.18;55.07;96980.91;4971648;29;20083;-81
2023/08/19 19:18:05;;;;;;;7.50;5.28;;;;;;;27.15;55.21;96986.84;4963819;28;20032;-83
2023/08/19 19:20:33;;;;;;;8.13;5.82;;;;;;;27.15;55.38;96986.84;4965223;28;20079;-82
2023/08/19 19:23:03;;;;;;;9.98;5.22;;;;;;;27.15;56.12;96997.53;4980109;28;20058;-82
2023/08/19 19:25:30;;;;;;;9.00;6.38;;;;;;;27.15;56.04;96997.53;4979879;28;20071;-82
2023/08/19 19:27:58;;;;;;;8.60;6.18;;;;;;;27.18;56.63;97005.00;4979529;28;20053;-81
2023/08/19 19:30:26;;;;;;;6.85;4.80;;;;;;;27.13;55.96;97006.66;4979534;28;20031;-81
2023/08/19 19:32:53;;;;;;;8.98;4.75;;;;;;;27.08;55.93;96998.66;4979819;28;20079;-81
2023/08/19 19:35:22;;;;;;;8.88;5.30;;;;;;;27.04;56.27;96997.59;4979756;28;20062;-81
2023/08/19 19:37:50;;;;;;;6.30;4.95;;;;;;;27.01;56.40;96986.66;4980024;28;20051;-82
2023/08/19 19:40:19;;;;;;;10.05;5.03;;;;;;;26.96;56.21;97000.91;4980194;28;20344;-81
2023/08/19 19:42:48;;;;;;;9.32;5.30;;;;;;;26.90;56.10;96991.28;4980316;28;20043;-80
2023/08/19 19:45:17;;;;;;;9.00;4.75;;;;;;;26.83;56.21;96998.81;4980497;28;20062;-83
2023/08/19 19:47:45;;;;;;;8.02;4.53;;;;;;;26.74;56.90;96995.91;4980448;28;20067;-82
2023/08/19 19:50:13;;;;;;;5.18;4.70;;;;;;;26.68;57.02;96989.81;4980484;28;20041;-81
2023/08/19 19:52:41;;;;;;;7.30;4.68;;;;;;;26.62;57.16;96990.91;4978749;28;20067;-81
2023/08/19 19:55:09;;;;;;;8.60;4.75;;;;;;;26.57;57.42;96988.25;4978912;28;20051;-81
2023/08/19 19:57:38;;;;;;;8.07;5.43;;;;;;;26.52;57.20;96986.38;4978490;28;20035;-81
2023/08/19 20:00:10;;;;;;;11.48;5.55;;;;;;;26.50;57.56;96995.72;4979080;28;20027;-79
2023/08/19 20:02:37;;;;;;;8.07;5.13;;;;;;;26.46;56.96;96984.00;4972448;28;20045;-81
2023/08/19 20:05:06;;;;;;;9.02;5.05;;;;;;;26.43;57.54;96989.88;4980394;28;20042;-79
2023/08/19 20:07:33;;;;;;;5.57;4.82;;;;;;;26.40;57.21;96993.13;4979830;28;20039;-80
2023/08/19 20:10:03;;;;;;;13.20;5.20;;;;;;;26.35;56.97;96996.63;4978329;28;20039;-79
2023/08/19 20:12:34;;;;;;;8.90;5.63;;;;;;;26.29;57.29;96987.81;4975712;28;20035;-80
2023/08/19 20:15:03;;;;;;;8.20;5.43;;;;;;;26.26;57.23;96999.06;4978342;28;20078;-80
2023/08/19 20:17:31;;;;;;;7.35;4.65;;;;;;;26.24;57.46;96995.84;4978274;28;20671;-80
2023/08/19 20:19:59;;;;;;;8.05;5.50;;;;;;;26.21;57.56;96996.38;4978501;28;20063;-80
2023/08/19 20:22:27;;;;;;;7.00;5.30;;;;;;;26.17;58.00;96998.00;4978160;28;20082;-79
2023/08/19 20:24:54;;;;;;;10.63;5.57;;;;;;;26.14;58.29;96995.88;4978378;28;20074;-80
2023/08/19 20:27:22;;;;;;;7.15;5.30;;;;;;;26.10;58.21;96990.25;4978723;28;20063;-80
2023/08/19 20:29:50;;;;;;;7.50;5.22;;;;;;;26.06;58.14;96983.88;4979412;28;20079;-81
2023/08/19 20:32:19;;;;;;;6.15;4.85;;;;;;;26.04;58.47;96990.56;4979610;28;20079;-82
2023/08/19 20:34:46;;;;;;;8.05;5.50;;;;;;;25.98;58.62;96994.34;4979879;28;20063;-80
2023/08/19 20:37:14;;;;;;;8.20;6.07;;;;;;;25.92;58.87;96992.75;4979990;28;20067;-80
2023/08/19 20:39:42;;;;;;;7.18;5.05;;;;;;;25.93;58.73;97010.38;4979796;28;20039;-81
2023/08/19 20:42:09;;;;;;;6.72;5.57;;;;;;;25.94;58.75;97009.31;4979478;28;20047;-81
2023/08/19 20:44:37;;;;;;;8.38;5.90;;;;;;;25.98;58.81;97018.38;4979814;28;20063;-81
2023/08/19 20:47:05;;;;;;;13.07;5.45;;;;;;;26.01;58.45;97023.97;4979110;28;20041;-80
2023/08/19 20:49:34;;;;;;;7.88;5.78;;;;;;;26.05;58.51;97029.59;4979544;28;20035;-80
2023/08/19 20:52:01;;;;;;;6.07;4.90;;;;;;;26.07;58.40;97014.09;4979175;28;20140;-80
2023/08/19 20:54:29;;;;;;;11.23;5.82;;;;;;;26.06;58.63;97020.50;4979672;28;20115;-81
2023/08/19 20:56:57;;;;;;;8.90;5.50;;;;;;;26.04;58.74;97012.75;4979612;28;20059;-81
2023/08/19 20:59:25;;;;;;;9.40;5.55;;;;;;;26.04;58.56;97018.09;4979539;28;20039;-81
2023/08/19 21:01:52;;;;;;;9.27;5.63;;;;;;;26.02;58.52;97017.56;4979211;28;20055;-81
2023/08/19 21:04:20;;;;;;;8.27;5.32;;;;;;;25.98;58.54;97018.38;4979421;28;20047;-81
2023/08/19 21:06:49;;;;;;;12.35;5.88;;;;;;;25.89;58.30;97023.47;4979676;28;20043;-81
2023/08/19 21:09:17;;;;;;;6.18;5.57;;;;;;;25.80;58.63;97033.88;4979395;28;20035;-81
2023/08/19 21:11:45;;;;;;;8.90;6.13;;;;;;;25.75;58.94;97035.75;4979616;28;20039;-80
2023/08/19 21:14:12;;;;;;;9.43;5.80;;;;;;;25.73;59.02;97033.34;4979900;28;20031;-81
2023/08/19 21:16:40;;;;;;;7.07;5.63;;;;;;;25.73;59.46;97033.34;4979633;28;20031;-81
2023/08/19 21:19:08;;;;;;;11.90;5.43;;;;;;;25.73;59.40;97033.34;4979734;28;20059;-80
2023/08/19 21:21:36;;;;;;;9.88;5.60;;;;;;;25.73;59.34;97037.88;4979670;28;20031;-81
2023/08/19 21:24:06;;;;;;;6.72;5.95;;;;;;;25.71;59.24;97030.13;4979604;28;20076;-81
2023/08/19 21:26:34;;;;;;;9.40;6.20;;;;;;;25.67;59.46;97029.06;4979667;28;20035;-81